createdAt,value
2017-08-17T00:00:45.023Z,19.60
2017-08-17T00:05:48.227Z,19.60
2017-08-17T00:10:51.438Z,19.60
2017-08-17T00:15:54.638Z,19.50
2017-08-17T00:20:57.825Z,19.30
2017-08-17T00:26:01.784Z,19.30
2017-08-17T00:31:04.971Z,19.30
2017-08-17T00:36:08.151Z,19.20
2017-08-17T00:41:11.346Z,19.00
2017-08-17T00:46:14.533Z,18.60
2017-08-17T00:51:17.728Z,18.40
2017-08-17T00:56:20.907Z,18.40
2017-08-17T01:01:24.194Z,18.40
2017-08-17T01:06:28.136Z,18.10
2017-08-17T01:11:31.323Z,18.10
2017-08-17T01:16:35.372Z,18.00
2017-08-17T01:21:39.277Z,17.90
2017-08-17T01:26:43.486Z,17.90
2017-08-17T01:31:46.658Z,17.90
2017-08-17T01:36:49.849Z,17.90
2017-08-17T01:41:53.010Z,17.90
2017-08-17T01:46:56.193Z,17.90
2017-08-17T01:51:59.370Z,17.90
2017-08-17T01:57:02.685Z,17.80
2017-08-17T02:02:05.874Z,17.80
2017-08-17T02:07:09.036Z,17.80
2017-08-17T02:12:12.197Z,17.70
2017-08-17T02:17:15.389Z,17.90
2017-08-17T02:22:18.604Z,17.80
2017-08-17T02:27:21.833Z,17.70
2017-08-17T02:32:25.053Z,17.70
2017-08-17T02:37:28.228Z,17.60
2017-08-17T02:42:31.529Z,17.60
2017-08-17T02:47:35.458Z,17.40
2017-08-17T02:52:38.653Z,17.50
2017-08-17T02:57:42.609Z,17.10
2017-08-17T03:02:45.824Z,17.10
2017-08-17T03:07:49.111Z,17.30
2017-08-17T03:12:52.341Z,17.30
2017-08-17T03:17:55.529Z,17.20
2017-08-17T03:22:58.704Z,17.00
2017-08-17T03:28:02.668Z,16.80
2017-08-17T03:33:05.870Z,16.80
2017-08-17T03:38:09.041Z,17.00
2017-08-17T03:43:13.001Z,16.80
2017-08-17T03:48:16.214Z,16.70
2017-08-17T03:53:19.749Z,16.80
2017-08-17T03:58:22.975Z,17.00
2017-08-17T04:03:26.206Z,17.20
2017-08-17T04:08:30.177Z,17.30
2017-08-17T04:13:33.850Z,17.30
2017-08-17T04:18:37.877Z,17.50
2017-08-17T04:23:41.072Z,17.50
2017-08-17T04:28:45.172Z,17.50
2017-08-17T04:33:48.356Z,17.50
2017-08-17T04:38:51.631Z,17.40
2017-08-17T04:43:54.851Z,17.40
2017-08-17T04:48:58.032Z,17.40
2017-08-17T04:54:01.993Z,17.80
2017-08-17T04:59:05.200Z,17.80
2017-08-17T05:04:08.401Z,17.90
2017-08-17T05:09:11.594Z,18.10
2017-08-17T05:14:14.902Z,18.20
2017-08-17T05:19:18.824Z,18.60
2017-08-17T05:24:21.998Z,18.50
2017-08-17T05:29:25.196Z,18.30
2017-08-17T05:34:28.374Z,18.40
2017-08-17T05:39:31.558Z,18.50
2017-08-17T05:44:35.661Z,18.30
2017-08-17T05:49:39.613Z,20.10
2017-08-17T05:54:42.806Z,20.00
2017-08-17T05:59:46.031Z,21.50
2017-08-17T06:04:49.251Z,22.00
2017-08-17T06:09:52.437Z,23.60
2017-08-17T06:14:55.651Z,23.50
2017-08-17T06:19:58.866Z,23.10
2017-08-17T06:25:02.065Z,23.30
2017-08-17T06:30:05.254Z,23.60
2017-08-17T06:35:09.206Z,25.50
2017-08-17T06:40:12.362Z,25.40
2017-08-17T06:45:16.360Z,25.70
2017-08-17T06:50:19.537Z,25.70
2017-08-17T06:55:22.741Z,24.70
2017-08-17T07:00:25.937Z,24.30
2017-08-17T07:05:29.126Z,23.70
2017-08-17T07:10:33.069Z,24.30
2017-08-17T07:15:36.369Z,24.30
2017-08-17T07:20:40.341Z,24.90
2017-08-17T07:25:43.605Z,24.90
2017-08-17T07:30:47.536Z,24.60
2017-08-17T07:35:50.774Z,24.60
2017-08-17T07:40:55.233Z,25.10
2017-08-17T07:45:58.469Z,24.50
2017-08-17T07:51:02.413Z,25.20
2017-08-17T07:56:05.598Z,25.20
2017-08-17T08:01:09.570Z,24.30
2017-08-17T08:06:12.742Z,24.30
2017-08-17T08:11:15.967Z,24.50
2017-08-17T08:16:19.191Z,24.30
2017-08-17T08:21:22.460Z,25.50
2017-08-17T08:26:26.437Z,25.20
2017-08-17T08:31:29.641Z,25.20
2017-08-17T08:36:33.153Z,24.80
2017-08-17T08:41:36.358Z,24.70
2017-08-17T08:46:39.649Z,24.30
2017-08-17T08:51:42.980Z,24.60
2017-08-17T08:56:46.178Z,24.10
2017-08-17T09:01:49.358Z,24.20
2017-08-17T09:06:52.582Z,24.10
2017-08-17T09:11:55.774Z,24.30
2017-08-17T09:16:59.009Z,24.80
2017-08-17T09:22:02.358Z,25.00
2017-08-17T09:27:06.326Z,25.00
2017-08-17T09:32:09.534Z,25.00
2017-08-17T09:37:12.837Z,25.50
2017-08-17T09:42:16.063Z,25.30
2017-08-17T09:47:19.226Z,26.30
2017-08-17T09:52:22.412Z,26.20
2017-08-17T09:57:26.379Z,25.20
2017-08-17T10:02:29.583Z,25.20
2017-08-17T10:07:32.760Z,25.80
2017-08-17T10:12:36.750Z,26.30
2017-08-17T10:17:39.945Z,26.30
2017-08-17T10:22:43.150Z,26.80
2017-08-17T10:27:46.346Z,27.00
2017-08-17T10:32:49.550Z,27.00
2017-08-17T10:37:52.736Z,27.20
2017-08-17T10:42:55.921Z,27.40
2017-08-17T10:47:59.876Z,26.80
2017-08-17T10:53:03.085Z,26.80
2017-08-17T10:58:06.262Z,26.70
2017-08-17T11:03:10.231Z,26.90
2017-08-17T11:08:13.411Z,26.90
2017-08-17T11:13:16.633Z,27.20
2017-08-17T11:18:19.794Z,27.10
2017-08-17T11:23:23.018Z,27.80
2017-08-17T11:28:26.998Z,27.50
2017-08-17T11:33:30.187Z,27.50
2017-08-17T11:38:33.381Z,27.80
2017-08-17T11:43:36.582Z,27.40
2017-08-17T11:48:38.982Z,27.90
2017-08-17T11:53:42.169Z,27.40
2017-08-17T11:58:45.352Z,27.70
2017-08-17T12:03:49.321Z,28.70
2017-08-17T12:08:52.637Z,28.80
2017-08-17T12:13:55.790Z,28.70
2017-08-17T12:18:59.736Z,28.70
2017-08-17T12:24:02.945Z,28.70
2017-08-17T12:29:06.881Z,28.20
2017-08-17T12:34:10.106Z,28.20
2017-08-17T12:39:13.388Z,28.40
2017-08-17T12:44:17.375Z,27.90
2017-08-17T12:49:20.576Z,27.90
2017-08-17T12:54:23.753Z,27.40
2017-08-17T12:59:27.085Z,27.50
2017-08-17T13:04:30.231Z,28.00
2017-08-17T13:09:33.408Z,28.10
2017-08-17T13:14:36.580Z,28.50
2017-08-17T13:19:39.773Z,27.50
2017-08-17T13:24:42.973Z,27.70
2017-08-17T13:29:46.170Z,28.10
2017-08-17T13:34:49.372Z,28.50
2017-08-17T13:39:52.574Z,28.70
2017-08-17T13:44:56.526Z,28.00
2017-08-17T13:49:59.706Z,28.10
2017-08-17T13:55:03.688Z,27.40
2017-08-17T14:00:06.856Z,27.30
2017-08-17T14:05:10.043Z,27.40
2017-08-17T14:10:14.032Z,27.90
2017-08-17T14:15:17.210Z,27.90
2017-08-17T14:20:20.389Z,27.60
2017-08-17T14:25:23.592Z,27.10
2017-08-17T14:30:27.537Z,26.70
2017-08-17T14:35:30.730Z,26.60
2017-08-17T14:40:33.917Z,26.50
2017-08-17T14:45:37.893Z,26.30
2017-08-17T14:50:41.086Z,26.30
2017-08-17T14:55:44.274Z,26.30
2017-08-17T15:00:47.493Z,26.40
2017-08-17T15:05:50.713Z,26.40
2017-08-17T15:10:53.890Z,26.40
2017-08-17T15:15:57.077Z,26.40
2017-08-17T15:21:01.030Z,26.50
2017-08-17T15:26:04.226Z,26.50
2017-08-17T15:31:07.588Z,26.30
2017-08-17T15:36:10.761Z,26.30
2017-08-17T15:41:13.948Z,26.10
2017-08-17T15:46:17.071Z,25.90
2017-08-17T15:51:20.269Z,25.80
2017-08-17T15:56:23.494Z,25.60
2017-08-17T16:01:26.676Z,25.20
2017-08-17T16:06:30.101Z,25.10
2017-08-17T16:11:33.297Z,25.00
2017-08-17T16:16:36.475Z,25.20
2017-08-17T16:21:39.675Z,25.10
2017-08-17T16:26:42.894Z,25.30
2017-08-17T16:31:46.094Z,25.30
2017-08-17T16:36:49.298Z,25.20
2017-08-17T16:41:52.517Z,25.20
2017-08-17T16:46:55.698Z,25.00
2017-08-17T16:51:58.850Z,25.00
2017-08-17T16:57:02.043Z,24.90
2017-08-17T17:02:06.022Z,25.00
2017-08-17T17:07:09.200Z,24.90
2017-08-17T17:12:12.414Z,24.90
2017-08-17T17:17:15.622Z,24.90
2017-08-17T17:22:18.832Z,24.80
2017-08-17T17:27:22.116Z,24.60
2017-08-17T17:32:25.297Z,24.50
2017-08-17T17:37:29.253Z,24.10
2017-08-17T17:42:32.451Z,24.10
2017-08-17T17:48:04.878Z,24.00
2017-08-17T17:53:08.067Z,23.90
2017-08-17T17:58:11.276Z,23.80
2017-08-17T18:03:14.481Z,23.70
2017-08-17T18:08:17.735Z,23.70
2017-08-17T18:13:20.941Z,23.70
2017-08-17T18:18:24.132Z,23.60
2017-08-17T18:23:27.332Z,23.50
2017-08-17T18:28:30.542Z,23.40
2017-08-17T18:33:33.761Z,23.40
2017-08-17T18:38:36.994Z,23.40
2017-08-17T18:43:40.216Z,23.40
2017-08-17T18:48:43.415Z,23.20
2017-08-17T18:53:46.622Z,23.20
2017-08-17T18:58:49.859Z,23.20
2017-08-17T19:03:53.066Z,23.10
2017-08-17T19:08:56.267Z,22.90
2017-08-17T19:13:59.507Z,23.00
2017-08-17T19:19:03.459Z,23.00
2017-08-17T19:24:06.674Z,23.00
2017-08-17T19:29:09.880Z,22.90
2017-08-17T19:34:13.109Z,22.90
2017-08-17T19:39:16.301Z,22.80
2017-08-17T19:44:19.488Z,22.80
2017-08-17T19:49:22.677Z,22.60
2017-08-17T19:54:25.969Z,22.60
2017-08-17T19:59:29.185Z,22.80
2017-08-17T20:04:32.359Z,22.70
2017-08-17T20:09:35.559Z,22.70
2017-08-17T20:14:38.817Z,22.50
2017-08-17T20:19:42.105Z,22.20
2017-08-17T20:24:45.310Z,21.90
2017-08-17T20:29:48.519Z,21.80
2017-08-17T20:34:51.710Z,21.80
2017-08-17T20:39:54.917Z,21.50
2017-08-17T20:44:58.103Z,21.40
2017-08-17T20:50:01.302Z,21.40
2017-08-17T20:55:04.486Z,21.40
2017-08-17T21:00:07.699Z,21.60
2017-08-17T21:05:10.898Z,21.70
2017-08-17T21:10:14.121Z,21.80
2017-08-17T21:15:17.332Z,21.90
2017-08-17T21:20:20.507Z,21.70
2017-08-17T21:25:23.741Z,21.40
2017-08-17T21:30:26.918Z,21.60
2017-08-17T21:35:30.106Z,21.60
2017-08-17T21:40:33.293Z,21.40
2017-08-17T21:45:36.493Z,21.10
2017-08-17T21:50:39.861Z,21.20
2017-08-17T21:55:43.032Z,21.10
2017-08-17T22:00:46.273Z,20.90
2017-08-17T22:05:49.753Z,20.80
2017-08-17T22:10:53.025Z,21.10
2017-08-17T22:15:56.266Z,20.90
2017-08-17T22:20:59.458Z,20.80
2017-08-17T22:26:02.648Z,20.40
2017-08-17T22:31:05.837Z,20.30
2017-08-17T22:36:09.027Z,20.30
2017-08-17T22:41:12.214Z,20.60
2017-08-17T22:46:15.412Z,20.60
2017-08-17T22:51:18.604Z,20.60
2017-08-17T22:56:21.894Z,20.40
2017-08-17T23:01:25.077Z,20.00
2017-08-17T23:06:28.315Z,19.80
2017-08-17T23:11:31.524Z,19.80
2017-08-17T23:16:34.706Z,19.80
2017-08-17T23:21:37.885Z,19.90
2017-08-17T23:26:41.070Z,20.00
2017-08-17T23:31:44.253Z,19.90
2017-08-17T23:36:47.437Z,19.60
2017-08-17T23:41:50.638Z,19.80
2017-08-17T23:46:53.826Z,19.60
2017-08-17T23:51:57.020Z,19.60
2017-08-17T23:57:00.205Z,19.50
